createdAt,value
2023-03-20T00:02:06.782Z,15.25
2023-03-20T00:04:35.855Z,11.10
2023-03-20T00:09:35.540Z,11.45
2023-03-20T00:12:02.728Z,10.85
2023-03-20T00:14:29.390Z,11.30
2023-03-20T00:16:55.914Z,11.13
2023-03-20T00:19:25.951Z,12.20
2023-03-20T00:21:54.948Z,11.77
2023-03-20T00:24:22.771Z,10.23
2023-03-20T00:26:51.313Z,12.85
2023-03-20T00:29:31.150Z,16.35
2023-03-20T00:31:58.463Z,12.55
2023-03-20T00:34:32.184Z,11.88
2023-03-20T00:37:00.200Z,10.63
2023-03-20T00:39:27.193Z,16.67
2023-03-20T00:42:06.024Z,14.48
2023-03-20T00:44:42.348Z,14.35
2023-03-20T00:47:16.907Z,9.68
2023-03-20T00:49:46.187Z,11.27
2023-03-20T00:52:12.810Z,12.48
2023-03-20T00:54:39.367Z,11.90
2023-03-20T00:57:18.004Z,15.65
2023-03-20T01:00:02.339Z,12.98
2023-03-20T01:02:29.893Z,10.88
2023-03-20T01:04:57.427Z,11.88
2023-03-20T01:07:26.679Z,11.02
2023-03-20T01:09:55.930Z,10.95
2023-03-20T01:12:22.737Z,12.20
2023-03-20T01:14:53.726Z,12.38
2023-03-20T01:17:23.061Z,13.93
2023-03-20T01:19:52.203Z,15.77
2023-03-20T01:24:53.136Z,14.00
2023-03-20T01:27:20.957Z,12.90
2023-03-20T01:29:49.952Z,9.50
2023-03-20T01:32:19.153Z,12.27
2023-03-20T01:34:45.783Z,13.75
2023-03-20T01:37:17.073Z,12.73
2023-03-20T01:39:47.400Z,10.95
2023-03-20T01:42:18.548Z,11.77
2023-03-20T01:44:45.825Z,12.70
2023-03-20T01:47:18.117Z,11.02
2023-03-20T01:50:26.531Z,11.38
2023-03-20T01:53:07.391Z,14.25
2023-03-20T01:55:39.718Z,11.75
2023-03-20T01:58:11.349Z,12.02
2023-03-20T02:00:38.202Z,10.40
2023-03-20T02:03:07.573Z,13.63
2023-03-20T02:05:41.002Z,11.05
2023-03-20T02:08:32.750Z,11.85
2023-03-20T02:11:01.399Z,10.98
2023-03-20T02:13:30.327Z,13.18
2023-03-20T02:16:13.277Z,14.15
2023-03-20T02:18:44.103Z,11.82
2023-03-20T02:21:41.751Z,11.73
2023-03-20T02:24:27.008Z,11.57
2023-03-20T02:27:10.962Z,10.80
2023-03-20T02:29:56.193Z,10.98
2023-03-20T02:32:28.837Z,9.25
2023-03-20T02:35:22.935Z,12.68
2023-03-20T02:38:27.041Z,10.25
2023-03-20T02:41:22.686Z,12.77
2023-03-20T02:44:12.996Z,11.45
2023-03-20T02:47:01.980Z,10.85
2023-03-20T02:49:59.514Z,10.05
2023-03-20T02:52:38.448Z,10.45
2023-03-20T02:55:16.329Z,9.38
2023-03-20T02:57:58.550Z,12.60
2023-03-20T03:00:36.666Z,10.23
2023-03-20T03:03:14.784Z,10.15
2023-03-20T03:05:50.156Z,9.55
2023-03-20T03:10:53.042Z,9.73
2023-03-20T03:13:31.093Z,10.07
2023-03-20T03:16:04.432Z,10.00
2023-03-20T03:18:34.764Z,9.57
2023-03-20T03:21:06.406Z,11.60
2023-03-20T03:23:40.206Z,11.63
2023-03-20T03:26:10.726Z,8.68
2023-03-20T03:28:46.139Z,10.88
2023-03-20T03:31:15.713Z,8.57
2023-03-20T03:33:46.979Z,9.70
2023-03-20T03:36:21.062Z,10.57
2023-03-20T03:39:15.488Z,10.35
2023-03-20T03:41:57.547Z,9.80
2023-03-20T03:44:37.143Z,9.70
2023-03-20T03:47:11.596Z,9.48
2023-03-20T03:49:42.693Z,10.20
2023-03-20T03:52:18.132Z,9.48
2023-03-20T03:54:49.492Z,9.43
2023-03-20T03:57:23.951Z,10.05
2023-03-20T03:59:52.965Z,9.35
2023-03-20T04:02:23.074Z,9.38
2023-03-20T04:04:54.000Z,12.38
2023-03-20T04:07:28.508Z,9.73
2023-03-20T04:09:57.574Z,11.00
2023-03-20T04:12:42.667Z,9.48
2023-03-20T04:15:09.622Z,9.48
2023-03-20T04:17:36.216Z,11.00
2023-03-20T04:20:04.109Z,10.63
2023-03-20T04:22:35.475Z,9.32
2023-03-20T04:25:04.115Z,11.05
2023-03-20T04:27:30.863Z,9.75
2023-03-20T04:29:57.570Z,10.52
2023-03-20T04:32:24.365Z,11.85
2023-03-20T04:34:52.179Z,10.82
2023-03-20T04:37:19.673Z,8.45
2023-03-20T04:39:48.520Z,10.50
2023-03-20T04:42:17.332Z,10.25
2023-03-20T04:44:46.376Z,9.50
2023-03-20T04:47:12.986Z,11.10
2023-03-20T04:49:39.522Z,9.80
2023-03-20T04:52:06.263Z,11.20
2023-03-20T04:54:32.921Z,9.57
2023-03-20T04:56:59.463Z,9.40
2023-03-20T04:59:26.106Z,9.90
2023-03-20T05:01:55.114Z,10.23
2023-03-20T05:04:24.220Z,8.10
2023-03-20T05:09:19.620Z,7.53
2023-03-20T05:11:46.172Z,9.70
2023-03-20T05:14:12.733Z,9.70
2023-03-20T05:16:42.221Z,8.10
2023-03-20T05:19:08.883Z,9.65
2023-03-20T05:21:35.683Z,8.40
2023-03-20T05:24:02.281Z,7.43
2023-03-20T05:26:28.816Z,9.77
2023-03-20T05:28:55.545Z,8.70
2023-03-20T05:31:22.207Z,8.50
2023-03-20T05:33:48.822Z,8.80
2023-03-20T05:36:16.805Z,8.85
2023-03-20T05:38:43.484Z,9.73
2023-03-20T05:41:10.344Z,7.93
2023-03-20T05:43:39.165Z,8.35
2023-03-20T05:46:06.477Z,11.07
2023-03-20T05:48:35.496Z,8.15
2023-03-20T05:51:02.102Z,6.80
2023-03-20T05:53:28.665Z,8.93
2023-03-20T05:55:57.492Z,9.02
2023-03-20T05:58:24.214Z,8.63
2023-03-20T06:00:50.980Z,8.10
2023-03-20T06:03:22.591Z,8.32
2023-03-20T06:05:49.166Z,8.82
2023-03-20T06:08:18.074Z,10.43
2023-03-20T06:10:49.340Z,10.40
2023-03-20T06:13:18.476Z,8.85
2023-03-20T06:18:14.115Z,8.55
2023-03-20T06:20:41.140Z,9.07
2023-03-20T06:23:08.378Z,9.15
2023-03-20T06:25:35.233Z,9.52
2023-03-20T06:28:05.007Z,9.20
2023-03-20T06:30:31.532Z,8.60
2023-03-20T06:32:58.401Z,7.15
2023-03-20T06:35:31.186Z,8.68
2023-03-20T06:38:01.277Z,8.18
2023-03-20T06:40:32.480Z,7.82
2023-03-20T06:43:03.918Z,8.15
2023-03-20T06:45:30.886Z,9.48
2023-03-20T06:47:57.463Z,7.10
2023-03-20T06:50:24.302Z,7.07
2023-03-20T06:52:56.526Z,8.82
2023-03-20T06:55:27.674Z,8.68
2023-03-20T06:57:54.239Z,7.55
2023-03-20T07:00:55.018Z,7.85
2023-03-20T07:07:14.484Z,7.07
2023-03-20T07:09:41.173Z,8.30
2023-03-20T07:12:14.561Z,7.22
2023-03-20T07:14:42.634Z,7.97
2023-03-20T07:17:12.454Z,6.93
2023-03-20T07:19:39.798Z,8.05
2023-03-20T07:22:09.352Z,7.40
2023-03-20T07:24:36.093Z,8.18
2023-03-20T07:27:05.139Z,8.57
2023-03-20T07:32:01.158Z,9.75
2023-03-20T07:34:27.751Z,10.50
2023-03-20T07:36:56.860Z,6.13
2023-03-20T07:39:23.421Z,6.65
2023-03-20T07:41:49.979Z,7.65
2023-03-20T07:44:19.281Z,7.15
2023-03-20T07:46:49.680Z,8.43
2023-03-20T07:49:22.563Z,5.57
2023-03-20T07:51:50.250Z,5.63
2023-03-20T07:54:19.764Z,7.28
2023-03-20T07:56:48.505Z,7.75
2023-03-20T07:59:18.339Z,7.57
2023-03-20T08:01:49.707Z,8.52
2023-03-20T08:04:19.533Z,7.13
2023-03-20T08:06:48.607Z,8.20
2023-03-20T08:09:17.969Z,7.40
2023-03-20T08:11:44.639Z,7.93
2023-03-20T08:14:11.335Z,8.13
2023-03-20T08:16:38.043Z,7.22
2023-03-20T08:19:06.247Z,17.42
2023-03-20T08:21:33.501Z,8.95
2023-03-20T08:24:02.700Z,8.63
2023-03-20T08:26:31.742Z,8.57
2023-03-20T08:29:00.899Z,8.10
2023-03-20T08:31:27.719Z,8.57
2023-03-20T08:33:58.529Z,8.82
2023-03-20T08:36:25.298Z,10.00
2023-03-20T08:38:51.969Z,9.95
2023-03-20T08:41:19.076Z,6.88
2023-03-20T08:43:50.185Z,7.55
2023-03-20T08:46:19.058Z,8.68
2023-03-20T08:51:12.374Z,9.77
2023-03-20T08:53:38.891Z,7.15
2023-03-20T08:56:06.312Z,7.97
2023-03-20T08:58:32.965Z,9.70
2023-03-20T09:01:07.046Z,9.80
2023-03-20T09:03:38.874Z,6.72
2023-03-20T09:06:07.414Z,9.63
2023-03-20T09:08:34.833Z,8.20
2023-03-20T09:11:08.210Z,7.40
2023-03-20T09:13:40.247Z,7.38
2023-03-20T09:16:07.349Z,8.40
2023-03-20T09:18:33.914Z,7.22
2023-03-20T09:21:00.546Z,7.20
2023-03-20T09:23:27.257Z,6.47
2023-03-20T09:25:53.895Z,5.78
2023-03-20T09:28:20.476Z,8.90
2023-03-20T09:30:54.690Z,6.13
2023-03-20T09:33:24.756Z,7.65
2023-03-20T09:35:51.462Z,7.53
2023-03-20T09:38:18.186Z,8.35
2023-03-20T09:40:54.073Z,7.82
2023-03-20T09:43:45.419Z,6.82
2023-03-20T09:46:42.970Z,5.45
2023-03-20T09:49:18.264Z,9.27
2023-03-20T09:52:10.433Z,7.85
2023-03-20T09:54:54.057Z,7.88
2023-03-20T09:57:29.874Z,8.40
2023-03-20T10:00:01.637Z,7.63
2023-03-20T10:02:52.456Z,8.82
2023-03-20T10:05:26.273Z,8.52
2023-03-20T10:08:01.242Z,7.50
2023-03-20T10:10:40.505Z,8.80
2023-03-20T10:13:45.575Z,8.30
2023-03-20T10:16:40.228Z,8.98
2023-03-20T10:19:22.488Z,8.98
2023-03-20T10:22:06.470Z,12.35
2023-03-20T10:24:39.207Z,10.82
2023-03-20T10:27:28.399Z,8.77
2023-03-20T10:30:13.089Z,8.60
2023-03-20T10:33:00.298Z,10.13
2023-03-20T10:35:47.231Z,11.93
2023-03-20T10:38:28.731Z,8.70
2023-03-20T10:40:59.055Z,8.07
2023-03-20T10:43:32.900Z,10.40
2023-03-20T10:46:06.119Z,9.30
2023-03-20T10:48:44.349Z,9.32
2023-03-20T10:51:21.549Z,11.95
2023-03-20T10:53:59.978Z,9.02
2023-03-20T10:56:39.245Z,9.02
2023-03-20T10:59:19.659Z,9.65
2023-03-20T11:01:46.219Z,8.20
2023-03-20T11:04:14.933Z,11.88
2023-03-20T11:06:59.781Z,9.80
2023-03-20T11:09:31.268Z,8.07
2023-03-20T11:11:59.554Z,8.90
2023-03-20T11:14:37.926Z,10.02
2023-03-20T11:17:07.179Z,8.43
2023-03-20T11:19:36.341Z,9.35
2023-03-20T11:22:28.826Z,9.57
2023-03-20T11:25:01.430Z,12.38
2023-03-20T11:27:33.260Z,9.60
2023-03-20T11:30:07.558Z,8.75
2023-03-20T11:32:46.615Z,7.35
2023-03-20T11:35:28.540Z,8.63
2023-03-20T11:38:13.872Z,9.25
2023-03-20T11:40:42.639Z,9.25
2023-03-20T11:43:22.096Z,7.65
2023-03-20T11:45:58.073Z,8.38
2023-03-20T11:48:48.866Z,8.68
2023-03-20T11:51:18.840Z,10.02
2023-03-20T11:53:48.444Z,8.68
2023-03-20T11:56:23.701Z,8.95
2023-03-20T11:59:01.954Z,10.55
2023-03-20T12:01:40.724Z,8.30
2023-03-20T12:04:12.687Z,9.25
2023-03-20T12:07:01.448Z,9.00
2023-03-20T12:09:42.993Z,8.02
2023-03-20T12:12:27.609Z,8.70
2023-03-20T12:15:04.255Z,18.30
2023-03-20T12:17:38.392Z,10.00
2023-03-20T12:20:34.640Z,10.55
2023-03-20T12:23:13.739Z,8.70
2023-03-20T12:25:52.457Z,8.88
2023-03-20T12:28:44.129Z,9.48
2023-03-20T12:31:25.427Z,9.80
2023-03-20T12:34:11.601Z,10.23
2023-03-20T12:36:44.164Z,9.88
2023-03-20T12:39:19.941Z,9.95
2023-03-20T12:41:55.602Z,11.20
2023-03-20T12:44:39.178Z,10.63
2023-03-20T12:47:10.952Z,13.02
2023-03-20T12:49:53.077Z,11.20
2023-03-20T12:52:46.519Z,9.85
2023-03-20T12:58:16.699Z,9.57
2023-03-20T13:01:04.910Z,11.02
2023-03-20T13:03:59.921Z,10.35
2023-03-20T13:06:29.722Z,12.23
2023-03-20T13:09:01.941Z,11.77
2023-03-20T13:11:28.472Z,9.95
2023-03-20T13:14:01.113Z,11.48
2023-03-20T13:16:30.588Z,12.55
2023-03-20T13:19:07.961Z,10.90
2023-03-20T13:21:49.407Z,9.98
2023-03-20T13:24:27.851Z,9.43
2023-03-20T13:27:16.152Z,10.10
2023-03-20T13:29:53.118Z,10.85
2023-03-20T13:32:56.167Z,10.23
2023-03-20T13:35:37.873Z,9.50
2023-03-20T13:38:21.680Z,10.10
2023-03-20T13:40:55.312Z,11.13
2023-03-20T13:43:40.060Z,9.98
2023-03-20T13:46:12.268Z,9.75
2023-03-20T13:48:45.288Z,8.90
2023-03-20T13:51:35.758Z,10.27
2023-03-20T13:54:29.564Z,14.32
2023-03-20T13:57:22.203Z,11.27
2023-03-20T14:00:23.023Z,10.65
2023-03-20T14:03:26.362Z,12.10
2023-03-20T14:05:55.479Z,10.35
2023-03-20T14:08:22.023Z,8.32
2023-03-20T14:10:54.720Z,9.95
2023-03-20T14:13:26.089Z,8.93
2023-03-20T14:15:58.643Z,10.23
2023-03-20T14:18:26.537Z,9.38
2023-03-20T14:20:59.754Z,9.38
2023-03-20T14:23:35.560Z,9.38
2023-03-20T14:26:07.936Z,9.45
2023-03-20T14:28:46.288Z,11.20
2023-03-20T14:31:23.006Z,11.45
2023-03-20T14:34:08.516Z,10.57
2023-03-20T14:36:53.974Z,10.75
2023-03-20T14:39:28.424Z,9.90
2023-03-20T14:42:09.501Z,9.85
2023-03-20T14:47:26.844Z,9.20
2023-03-20T14:50:12.112Z,9.10
2023-03-20T14:52:46.970Z,11.85
2023-03-20T14:55:31.395Z,8.93
2023-03-20T14:58:05.871Z,10.65
2023-03-20T15:00:46.074Z,8.73
2023-03-20T15:03:17.642Z,10.68
2023-03-20T15:05:47.469Z,11.10
2023-03-20T15:08:27.329Z,15.00
2023-03-20T15:10:57.418Z,10.15
2023-03-20T15:13:25.597Z,10.35
2023-03-20T15:16:05.246Z,11.98
2023-03-20T15:18:38.114Z,11.10
2023-03-20T15:21:21.323Z,8.80
2023-03-20T15:23:50.700Z,12.60
2023-03-20T15:26:22.310Z,11.80
2023-03-20T15:28:52.312Z,10.70
2023-03-20T15:31:30.087Z,8.88
2023-03-20T15:33:58.184Z,9.70
2023-03-20T15:36:30.289Z,10.15
2023-03-20T15:39:18.609Z,9.23
2023-03-20T15:41:55.299Z,10.57
2023-03-20T15:44:28.270Z,11.25
2023-03-20T15:47:03.613Z,8.13
2023-03-20T15:49:32.396Z,8.23
2023-03-20T15:52:06.943Z,8.93
2023-03-20T15:54:37.537Z,7.72
2023-03-20T15:57:06.085Z,13.68
2023-03-20T15:59:37.538Z,9.07
2023-03-20T16:02:13.485Z,10.55
2023-03-20T16:04:48.054Z,7.20
2023-03-20T16:07:28.868Z,8.55
2023-03-20T16:09:55.490Z,7.85
2023-03-20T16:12:26.733Z,9.25
2023-03-20T16:14:54.265Z,7.68
2023-03-20T16:17:26.774Z,6.80
2023-03-20T16:19:56.241Z,8.48
2023-03-20T16:22:32.507Z,7.50
2023-03-20T16:25:04.570Z,9.02
2023-03-20T16:27:38.661Z,10.55
2023-03-20T16:30:10.522Z,8.02
2023-03-20T16:32:39.313Z,8.20
2023-03-20T16:37:48.592Z,7.15
2023-03-20T16:40:37.159Z,8.15
2023-03-20T16:43:28.468Z,7.68
2023-03-20T16:45:57.339Z,7.13
2023-03-20T16:50:59.503Z,6.47
2023-03-20T16:53:31.235Z,7.72
2023-03-20T16:56:00.950Z,7.65
2023-03-20T16:58:32.626Z,7.50
2023-03-20T17:01:04.265Z,7.97
2023-03-20T17:03:38.284Z,8.85
2023-03-20T17:06:28.060Z,10.30
2023-03-20T17:08:59.750Z,8.65
2023-03-20T17:11:34.917Z,7.85
2023-03-20T17:14:04.494Z,7.53
2023-03-20T17:16:36.736Z,7.60
2023-03-20T17:19:13.603Z,10.75
2023-03-20T17:21:40.806Z,9.18
2023-03-20T17:24:15.045Z,8.95
2023-03-20T17:26:44.174Z,8.80
2023-03-20T17:29:12.120Z,8.80
2023-03-20T17:31:39.100Z,9.27
2023-03-20T17:34:05.997Z,9.32
2023-03-20T17:36:34.504Z,7.47
2023-03-20T17:39:01.589Z,7.28
2023-03-20T17:41:28.896Z,7.05
2023-03-20T17:43:58.099Z,5.80
2023-03-20T17:46:30.172Z,6.55
2023-03-20T17:49:04.340Z,8.38
2023-03-20T17:51:31.027Z,9.05
2023-03-20T17:54:02.438Z,8.95
2023-03-20T17:56:30.332Z,7.30
2023-03-20T17:58:57.524Z,7.43
2023-03-20T18:01:26.499Z,8.68
2023-03-20T18:03:53.576Z,7.50
2023-03-20T18:06:33.536Z,6.63
2023-03-20T18:09:08.907Z,6.13
2023-03-20T18:11:35.505Z,7.43
2023-03-20T18:14:02.166Z,6.22
2023-03-20T18:16:32.613Z,5.93
2023-03-20T18:19:02.681Z,6.18
2023-03-20T18:21:29.394Z,6.57
2023-03-20T18:23:55.958Z,5.47
2023-03-20T18:26:28.284Z,5.80
2023-03-20T18:29:00.287Z,7.82
2023-03-20T18:31:29.214Z,7.20
2023-03-20T18:36:24.531Z,6.07
2023-03-20T18:41:20.941Z,5.57
2023-03-20T18:43:48.241Z,6.18
2023-03-20T18:46:19.502Z,6.47
2023-03-20T18:48:47.014Z,8.48
2023-03-20T18:51:14.410Z,6.50
2023-03-20T18:53:41.598Z,9.02
2023-03-20T18:56:19.219Z,7.07
2023-03-20T18:58:49.484Z,5.88
2023-03-20T19:01:19.176Z,6.97
2023-03-20T19:03:46.913Z,6.55
2023-03-20T19:06:15.532Z,6.32
2023-03-20T19:08:45.377Z,8.90
2023-03-20T19:11:15.575Z,6.05
2023-03-20T19:13:47.315Z,5.57
2023-03-20T19:16:24.982Z,7.40
2023-03-20T19:18:56.219Z,6.10
2023-03-20T19:21:29.112Z,6.22
2023-03-20T19:23:57.684Z,6.75
2023-03-20T19:26:26.564Z,6.40
2023-03-20T19:28:59.213Z,7.72
2023-03-20T19:31:30.950Z,7.50
2023-03-20T19:33:57.674Z,6.55
2023-03-20T19:36:28.773Z,7.47
2023-03-20T19:38:56.770Z,7.13
2023-03-20T19:41:27.811Z,6.22
2023-03-20T19:43:57.719Z,8.43
2023-03-20T19:46:43.221Z,6.47
2023-03-20T19:49:21.420Z,7.88
2023-03-20T19:51:53.575Z,9.75
2023-03-20T19:54:25.584Z,8.50
2023-03-20T19:57:02.986Z,7.53
2023-03-20T19:59:32.828Z,7.30
2023-03-20T20:02:02.889Z,8.40
2023-03-20T20:04:36.985Z,6.25
2023-03-20T20:07:47.218Z,7.80
2023-03-20T20:10:01.371Z,9.02
2023-03-20T20:12:38.879Z,8.45
2023-03-20T20:19:46.635Z,7.28
2023-03-20T20:26:00.134Z,9.95
2023-03-20T20:39:27.282Z,8.45
2023-03-20T20:41:58.724Z,7.43
2023-03-20T20:44:27.904Z,7.97
2023-03-20T20:46:54.513Z,9.57
2023-03-20T20:49:23.551Z,7.78
2023-03-20T20:54:19.157Z,7.90
2023-03-20T20:56:46.321Z,8.50
2023-03-20T20:59:18.080Z,8.05
2023-03-20T21:01:47.049Z,9.85
2023-03-20T21:07:09.460Z,9.75
2023-03-20T21:09:29.379Z,8.93
2023-03-20T21:11:58.525Z,9.57
2023-03-20T21:14:25.328Z,10.23
2023-03-20T21:17:00.927Z,9.60
2023-03-20T21:19:29.467Z,9.57
2023-03-20T21:21:59.075Z,9.93
2023-03-20T21:24:34.037Z,7.85
2023-03-20T21:27:04.663Z,8.75
2023-03-20T21:29:33.766Z,7.90
2023-03-20T21:32:02.687Z,8.95
2023-03-20T21:34:29.315Z,8.63
2023-03-20T21:37:02.955Z,9.10
2023-03-20T21:39:56.369Z,7.43
2023-03-20T21:42:22.909Z,8.55
2023-03-20T21:46:06.647Z,7.20
2023-03-20T21:50:49.455Z,6.63
2023-03-20T21:54:07.529Z,6.13
2023-03-20T21:56:45.672Z,5.18
2023-03-20T21:59:27.004Z,5.70
2023-03-20T22:02:00.844Z,5.95
2023-03-20T22:05:09.825Z,7.88
2023-03-20T22:07:38.228Z,5.80
2023-03-20T22:16:05.668Z,5.25
2023-03-20T22:19:17.864Z,7.68
2023-03-20T22:21:48.510Z,5.63
2023-03-20T22:30:12.385Z,7.20
2023-03-20T22:32:56.399Z,8.18
2023-03-20T22:41:36.210Z,9.55
2023-03-20T22:49:07.630Z,9.13
2023-03-20T22:54:10.849Z,7.63
2023-03-20T22:56:37.426Z,7.53
2023-03-20T22:59:04.908Z,10.05
2023-03-20T23:01:31.560Z,8.98
2023-03-20T23:03:58.145Z,9.45
2023-03-20T23:06:27.294Z,8.95
2023-03-20T23:08:58.429Z,7.30
2023-03-20T23:11:29.674Z,6.15
2023-03-20T23:14:01.221Z,9.70
2023-03-20T23:16:27.844Z,9.75
2023-03-20T23:18:54.904Z,7.20
2023-03-20T23:21:21.562Z,7.65
2023-03-20T23:23:48.139Z,8.88
2023-03-20T23:26:22.968Z,8.18
2023-03-20T23:28:52.707Z,7.47
2023-03-20T23:31:24.791Z,7.63
2023-03-20T23:33:56.408Z,9.02
2023-03-20T23:36:35.975Z,7.10
2023-03-20T23:39:09.320Z,7.35
2023-03-20T23:42:04.664Z,7.28
2023-03-20T23:44:28.493Z,6.95
2023-03-20T23:46:57.767Z,9.52
2023-03-20T23:49:27.934Z,6.25
2023-03-20T23:51:59.492Z,6.15
2023-03-20T23:54:31.031Z,6.93
2023-03-20T23:56:57.599Z,7.18
2023-03-20T23:59:28.910Z,7.30
